sensor_id;sensor_type;location;lat;lon;timestamp;temperature;humidity
32809;DHT22;19159;48.178;16.386;2023-10-19T00:00:46;13.70;88.70
32809;DHT22;19159;48.178;16.386;2023-10-19T00:03:15;13.70;88.80
32809;DHT22;19159;48.178;16.386;2023-10-19T00:05:41;13.70;88.80
32809;DHT22;19159;48.178;16.386;2023-10-19T00:08:10;13.70;88.60
32809;DHT22;19159;48.178;16.386;2023-10-19T00:10:49;13.80;88.30
32809;DHT22;19159;48.178;16.386;2023-10-19T00:13:34;13.80;88.50
32809;DHT22;19159;48.178;16.386;2023-10-19T00:16:07;13.80;88.70
32809;DHT22;19159;48.178;16.386;2023-10-19T00:18:39;13.60;89.00
32809;DHT22;19159;48.178;16.386;2023-10-19T00:21:08;13.60;89.20
32809;DHT22;19159;48.178;16.386;2023-10-19T00:23:45;13.60;90.00
32809;DHT22;19159;48.178;16.386;2023-10-19T00:26:13;13.60;89.50
32809;DHT22;19159;48.178;16.386;2023-10-19T00:28:51;13.60;89.50
32809;DHT22;19159;48.178;16.386;2023-10-19T00:31:21;13.50;90.10
32809;DHT22;19159;48.178;16.386;2023-10-19T00:33:48;13.60;90.00
32809;DHT22;19159;48.178;16.386;2023-10-19T00:36:17;13.60;89.80
32809;DHT22;19159;48.178;16.386;2023-10-19T00:38:46;13.70;89.80
32809;DHT22;19159;48.178;16.386;2023-10-19T00:41:16;13.80;89.60
32809;DHT22;19159;48.178;16.386;2023-10-19T00:43:53;13.70;89.80
32809;DHT22;19159;48.178;16.386;2023-10-19T00:46:36;13.80;89.60
32809;DHT22;19159;48.178;16.386;2023-10-19T00:49:09;13.70;89.90
32809;DHT22;19159;48.178;16.386;2023-10-19T00:51:39;13.70;90.00
32809;DHT22;19159;48.178;16.386;2023-10-19T00:54:16;13.70;89.90
32809;DHT22;19159;48.178;16.386;2023-10-19T00:56:47;13.70;90.00
32809;DHT22;19159;48.178;16.386;2023-10-19T00:59:17;13.70;90.00
32809;DHT22;19159;48.178;16.386;2023-10-19T01:01:51;13.80;90.00
32809;DHT22;19159;48.178;16.386;2023-10-19T01:04:20;13.80;89.80
32809;DHT22;19159;48.178;16.386;2023-10-19T01:06:48;13.80;89.90
32809;DHT22;19159;48.178;16.386;2023-10-19T01:09:37;13.80;90.10
32809;DHT22;19159;48.178;16.386;2023-10-19T01:12:04;13.80;90.10
32809;DHT22;19159;48.178;16.386;2023-10-19T01:15:08;13.80;90.10
32809;DHT22;19159;48.178;16.386;2023-10-19T01:17:51;13.80;90.00
32809;DHT22;19159;48.178;16.386;2023-10-19T01:20:26;13.90;90.00
32809;DHT22;19159;48.178;16.386;2023-10-19T01:25:54;13.90;90.00
32809;DHT22;19159;48.178;16.386;2023-10-19T01:28:27;14.00;90.00
32809;DHT22;19159;48.178;16.386;2023-10-19T01:31:09;14.00;90.00
32809;DHT22;19159;48.178;16.386;2023-10-19T01:33:48;14.10;89.80
32809;DHT22;19159;48.178;16.386;2023-10-19T01:36:14;14.00;90.00
32809;DHT22;19159;48.178;16.386;2023-10-19T01:38:42;14.10;90.00
32809;DHT22;19159;48.178;16.386;2023-10-19T01:41:08;14.10;89.80
32809;DHT22;19159;48.178;16.386;2023-10-19T01:43:45;14.20;89.40
32809;DHT22;19159;48.178;16.386;2023-10-19T01:46:12;14.20;89.40
32809;DHT22;19159;48.178;16.386;2023-10-19T01:48:42;14.30;89.40
32809;DHT22;19159;48.178;16.386;2023-10-19T01:51:10;14.30;89.30
32809;DHT22;19159;48.178;16.386;2023-10-19T01:53:38;14.20;89.50
32809;DHT22;19159;48.178;16.386;2023-10-19T01:56:15;14.20;89.50
32809;DHT22;19159;48.178;16.386;2023-10-19T01:58:43;14.30;89.60
32809;DHT22;19159;48.178;16.386;2023-10-19T02:01:09;14.30;89.50
32809;DHT22;19159;48.178;16.386;2023-10-19T02:03:41;14.30;89.40
32809;DHT22;19159;48.178;16.386;2023-10-19T02:06:10;14.40;89.40
32809;DHT22;19159;48.178;16.386;2023-10-19T02:08:51;14.40;89.50
32809;DHT22;19159;48.178;16.386;2023-10-19T02:11:20;14.40;89.40
32809;DHT22;19159;48.178;16.386;2023-10-19T02:13:48;14.40;89.30
32809;DHT22;19159;48.178;16.386;2023-10-19T02:16:17;14.50;89.40
32809;DHT22;19159;48.178;16.386;2023-10-19T02:18:55;14.50;89.20
32809;DHT22;19159;48.178;16.386;2023-10-19T02:21:21;14.50;89.10
32809;DHT22;19159;48.178;16.386;2023-10-19T02:23:56;14.50;89.00
32809;DHT22;19159;48.178;16.386;2023-10-19T02:26:23;14.50;89.00
32809;DHT22;19159;48.178;16.386;2023-10-19T02:28:52;14.50;89.20
32809;DHT22;19159;48.178;16.386;2023-10-19T02:31:19;14.50;89.70
32809;DHT22;19159;48.178;16.386;2023-10-19T02:33:50;14.50;89.70
32809;DHT22;19159;48.178;16.386;2023-10-19T02:36:25;14.40;89.80
32809;DHT22;19159;48.178;16.386;2023-10-19T02:38:54;14.40;90.00
32809;DHT22;19159;48.178;16.386;2023-10-19T02:41:20;14.40;90.00
32809;DHT22;19159;48.178;16.386;2023-10-19T02:43:47;14.50;90.00
32809;DHT22;19159;48.178;16.386;2023-10-19T02:46:16;14.50;90.00
32809;DHT22;19159;48.178;16.386;2023-10-19T02:48:43;14.50;90.00
32809;DHT22;19159;48.178;16.386;2023-10-19T02:51:15;14.50;90.00
32809;DHT22;19159;48.178;16.386;2023-10-19T02:53:41;14.50;90.10
32809;DHT22;19159;48.178;16.386;2023-10-19T02:56:14;14.40;90.10
32809;DHT22;19159;48.178;16.386;2023-10-19T02:58:43;14.40;90.10
32809;DHT22;19159;48.178;16.386;2023-10-19T03:01:18;14.40;90.20
32809;DHT22;19159;48.178;16.386;2023-10-19T03:03:51;14.40;90.30
32809;DHT22;19159;48.178;16.386;2023-10-19T03:06:21;14.30;90.30
32809;DHT22;19159;48.178;16.386;2023-10-19T03:08:48;14.30;90.50
32809;DHT22;19159;48.178;16.386;2023-10-19T03:11:17;14.30;90.60
32809;DHT22;19159;48.178;16.386;2023-10-19T03:13:44;14.30;90.60
32809;DHT22;19159;48.178;16.386;2023-10-19T03:16:10;14.30;90.60
32809;DHT22;19159;48.178;16.386;2023-10-19T03:18:36;14.30;90.50
32809;DHT22;19159;48.178;16.386;2023-10-19T03:21:03;14.30;90.60
32809;DHT22;19159;48.178;16.386;2023-10-19T03:23:28;14.30;90.60
32809;DHT22;19159;48.178;16.386;2023-10-19T03:25:55;14.20;90.80
32809;DHT22;19159;48.178;16.386;2023-10-19T03:28:40;14.20;90.90
32809;DHT22;19159;48.178;16.386;2023-10-19T03:31:06;14.10;91.00
32809;DHT22;19159;48.178;16.386;2023-10-19T03:33:33;14.10;91.20
32809;DHT22;19159;48.178;16.386;2023-10-19T03:36:02;14.10;91.30
32809;DHT22;19159;48.178;16.386;2023-10-19T03:38:32;14.10;91.40
32809;DHT22;19159;48.178;16.386;2023-10-19T03:41:02;14.10;91.40
32809;DHT22;19159;48.178;16.386;2023-10-19T03:43:33;14.10;91.40
32809;DHT22;19159;48.178;16.386;2023-10-19T03:45:58;14.20;91.30
32809;DHT22;19159;48.178;16.386;2023-10-19T03:48:24;14.00;91.60
32809;DHT22;19159;48.178;16.386;2023-10-19T03:50:56;14.00;91.60
32809;DHT22;19159;48.178;16.386;2023-10-19T03:53:22;14.10;91.60
32809;DHT22;19159;48.178;16.386;2023-10-19T03:55:49;14.10;91.50
32809;DHT22;19159;48.178;16.386;2023-10-19T03:58:18;14.20;91.50
32809;DHT22;19159;48.178;16.386;2023-10-19T04:00:46;14.20;91.50
32809;DHT22;19159;48.178;16.386;2023-10-19T04:03:13;14.20;91.60
32809;DHT22;19159;48.178;16.386;2023-10-19T04:05:39;14.20;91.70
32809;DHT22;19159;48.178;16.386;2023-10-19T04:08:06;14.20;91.60
32809;DHT22;19159;48.178;16.386;2023-10-19T04:10:39;14.20;91.80
32809;DHT22;19159;48.178;16.386;2023-10-19T04:13:34;14.20;91.90
32809;DHT22;19159;48.178;16.386;2023-10-19T04:16:00;14.20;91.90
32809;DHT22;19159;48.178;16.386;2023-10-19T04:18:26;14.20;91.90
32809;DHT22;19159;48.178;16.386;2023-10-19T04:20:52;14.20;91.80
32809;DHT22;19159;48.178;16.386;2023-10-19T04:23:18;14.20;91.90
32809;DHT22;19159;48.178;16.386;2023-10-19T04:25:46;14.20;91.80
32809;DHT22;19159;48.178;16.386;2023-10-19T04:28:12;14.30;91.70
32809;DHT22;19159;48.178;16.386;2023-10-19T04:30:39;14.20;91.90
32809;DHT22;19159;48.178;16.386;2023-10-19T04:33:05;14.20;92.00
32809;DHT22;19159;48.178;16.386;2023-10-19T04:35:38;14.20;92.00
32809;DHT22;19159;48.178;16.386;2023-10-19T04:38:06;14.30;92.00
32809;DHT22;19159;48.178;16.386;2023-10-19T04:40:32;14.20;92.00
32809;DHT22;19159;48.178;16.386;2023-10-19T04:42:57;14.30;92.00
32809;DHT22;19159;48.178;16.386;2023-10-19T04:45:23;14.30;91.80
32809;DHT22;19159;48.178;16.386;2023-10-19T04:47:53;14.30;91.90
32809;DHT22;19159;48.178;16.386;2023-10-19T04:50:20;14.30;92.00
32809;DHT22;19159;48.178;16.386;2023-10-19T04:52:45;14.30;92.10
32809;DHT22;19159;48.178;16.386;2023-10-19T04:55:11;14.30;91.90
32809;DHT22;19159;48.178;16.386;2023-10-19T04:57:37;14.40;92.00
32809;DHT22;19159;48.178;16.386;2023-10-19T05:00:02;14.40;92.00
32809;DHT22;19159;48.178;16.386;2023-10-19T05:02:29;14.30;92.00
32809;DHT22;19159;48.178;16.386;2023-10-19T05:04:55;14.30;92.10
32809;DHT22;19159;48.178;16.386;2023-10-19T05:07:20;14.30;92.20
32809;DHT22;19159;48.178;16.386;2023-10-19T05:09:46;14.40;92.50
32809;DHT22;19159;48.178;16.386;2023-10-19T05:12:14;14.40;92.10
32809;DHT22;19159;48.178;16.386;2023-10-19T05:14:41;14.40;92.10
32809;DHT22;19159;48.178;16.386;2023-10-19T05:17:07;14.50;92.00
32809;DHT22;19159;48.178;16.386;2023-10-19T05:19:37;14.50;92.20
32809;DHT22;19159;48.178;16.386;2023-10-19T05:22:05;14.40;92.40
32809;DHT22;19159;48.178;16.386;2023-10-19T05:24:31;14.50;92.30
32809;DHT22;19159;48.178;16.386;2023-10-19T05:26:57;14.50;92.30
32809;DHT22;19159;48.178;16.386;2023-10-19T05:29:23;14.60;92.30
32809;DHT22;19159;48.178;16.386;2023-10-19T05:31:50;14.60;92.30
32809;DHT22;19159;48.178;16.386;2023-10-19T05:34:20;14.60;92.70
32809;DHT22;19159;48.178;16.386;2023-10-19T05:36:45;14.50;92.40
32809;DHT22;19159;48.178;16.386;2023-10-19T05:39:14;14.50;92.50
32809;DHT22;19159;48.178;16.386;2023-10-19T05:41:40;14.50;92.60
32809;DHT22;19159;48.178;16.386;2023-10-19T05:44:06;14.50;92.70
32809;DHT22;19159;48.178;16.386;2023-10-19T05:46:31;14.60;92.60
32809;DHT22;19159;48.178;16.386;2023-10-19T05:48:57;14.60;92.60
32809;DHT22;19159;48.178;16.386;2023-10-19T05:51:23;14.60;92.60
32809;DHT22;19159;48.178;16.386;2023-10-19T05:53:49;14.60;92.70
32809;DHT22;19159;48.178;16.386;2023-10-19T05:56:16;14.50;92.90
32809;DHT22;19159;48.178;16.386;2023-10-19T05:58:43;14.50;93.20
32809;DHT22;19159;48.178;16.386;2023-10-19T06:01:09;14.60;93.00
32809;DHT22;19159;48.178;16.386;2023-10-19T06:03:35;14.60;93.00
32809;DHT22;19159;48.178;16.386;2023-10-19T06:06:01;14.70;92.90
32809;DHT22;19159;48.178;16.386;2023-10-19T06:08:26;14.70;92.90
32809;DHT22;19159;48.178;16.386;2023-10-19T06:10:53;14.80;93.00
32809;DHT22;19159;48.178;16.386;2023-10-19T06:13:20;14.70;93.20
32809;DHT22;19159;48.178;16.386;2023-10-19T06:15:45;14.60;93.30
32809;DHT22;19159;48.178;16.386;2023-10-19T06:18:13;14.70;93.20
32809;DHT22;19159;48.178;16.386;2023-10-19T06:20:43;14.80;93.30
32809;DHT22;19159;48.178;16.386;2023-10-19T06:23:09;14.80;93.40
32809;DHT22;19159;48.178;16.386;2023-10-19T06:25:37;14.80;93.80
32809;DHT22;19159;48.178;16.386;2023-10-19T06:28:03;14.80;93.60
32809;DHT22;19159;48.178;16.386;2023-10-19T06:30:29;14.80;93.70
32809;DHT22;19159;48.178;16.386;2023-10-19T06:32:57;14.90;93.60
32809;DHT22;19159;48.178;16.386;2023-10-19T06:35:27;15.00;93.40
32809;DHT22;19159;48.178;16.386;2023-10-19T06:37:54;15.00;93.40
32809;DHT22;19159;48.178;16.386;2023-10-19T06:40:22;15.10;93.40
32809;DHT22;19159;48.178;16.386;2023-10-19T06:42:48;15.20;93.40
32809;DHT22;19159;48.178;16.386;2023-10-19T06:45:15;15.30;93.30
32809;DHT22;19159;48.178;16.386;2023-10-19T06:47:49;15.40;93.20
32809;DHT22;19159;48.178;16.386;2023-10-19T06:50:17;15.40;93.20
32809;DHT22;19159;48.178;16.386;2023-10-19T06:52:44;15.30;93.10
32809;DHT22;19159;48.178;16.386;2023-10-19T06:55:11;15.30;93.20
32809;DHT22;19159;48.178;16.386;2023-10-19T06:57:46;15.20;93.30
32809;DHT22;19159;48.178;16.386;2023-10-19T07:00:14;15.30;93.30
32809;DHT22;19159;48.178;16.386;2023-10-19T07:02:47;15.30;93.20
32809;DHT22;19159;48.178;16.386;2023-10-19T07:05:14;15.30;93.30
32809;DHT22;19159;48.178;16.386;2023-10-19T07:07:45;15.30;93.30
32809;DHT22;19159;48.178;16.386;2023-10-19T07:10:13;15.40;93.30
32809;DHT22;19159;48.178;16.386;2023-10-19T07:12:43;15.20;93.70
32809;DHT22;19159;48.178;16.386;2023-10-19T07:15:10;15.30;93.60
32809;DHT22;19159;48.178;16.386;2023-10-19T07:17:45;15.40;93.50
32809;DHT22;19159;48.178;16.386;2023-10-19T07:20:15;15.40;93.50
32809;DHT22;19159;48.178;16.386;2023-10-19T07:23:04;15.30;93.40
32809;DHT22;19159;48.178;16.386;2023-10-19T07:25:59;15.30;93.40
32809;DHT22;19159;48.178;16.386;2023-10-19T07:28:26;15.30;93.40
32809;DHT22;19159;48.178;16.386;2023-10-19T07:30:52;15.30;93.50
32809;DHT22;19159;48.178;16.386;2023-10-19T07:33:18;15.40;93.50
32809;DHT22;19159;48.178;16.386;2023-10-19T07:35:49;15.40;93.50
32809;DHT22;19159;48.178;16.386;2023-10-19T07:38:21;15.50;93.40
32809;DHT22;19159;48.178;16.386;2023-10-19T07:40:47;15.60;93.30
32809;DHT22;19159;48.178;16.386;2023-10-19T07:43:13;15.50;93.30
32809;DHT22;19159;48.178;16.386;2023-10-19T07:45:39;15.50;93.30
32809;DHT22;19159;48.178;16.386;2023-10-19T07:48:11;15.60;93.20
32809;DHT22;19159;48.178;16.386;2023-10-19T07:50:38;15.60;93.20
32809;DHT22;19159;48.178;16.386;2023-10-19T07:53:06;15.60;93.20
32809;DHT22;19159;48.178;16.386;2023-10-19T07:55:37;15.60;93.20
32809;DHT22;19159;48.178;16.386;2023-10-19T07:58:07;15.50;93.30
32809;DHT22;19159;48.178;16.386;2023-10-19T08:00:39;15.60;93.30
32809;DHT22;19159;48.178;16.386;2023-10-19T08:03:05;15.60;93.40
32809;DHT22;19159;48.178;16.386;2023-10-19T08:05:32;15.60;93.50
32809;DHT22;19159;48.178;16.386;2023-10-19T08:08:02;15.70;93.40
32809;DHT22;19159;48.178;16.386;2023-10-19T08:10:30;15.80;93.20
32809;DHT22;19159;48.178;16.386;2023-10-19T08:12:55;15.90;93.10
32809;DHT22;19159;48.178;16.386;2023-10-19T08:15:21;15.90;93.10
32809;DHT22;19159;48.178;16.386;2023-10-19T08:17:49;15.90;93.10
32809;DHT22;19159;48.178;16.386;2023-10-19T08:20:16;15.90;93.10
32809;DHT22;19159;48.178;16.386;2023-10-19T08:22:51;16.00;93.10
32809;DHT22;19159;48.178;16.386;2023-10-19T08:25:16;16.00;93.10
32809;DHT22;19159;48.178;16.386;2023-10-19T08:27:46;16.00;93.10
32809;DHT22;19159;48.178;16.386;2023-10-19T08:30:16;16.00;93.10
32809;DHT22;19159;48.178;16.386;2023-10-19T08:32:43;15.80;93.30
32809;DHT22;19159;48.178;16.386;2023-10-19T08:35:14;15.90;93.20
32809;DHT22;19159;48.178;16.386;2023-10-19T08:37:39;16.00;93.10
32809;DHT22;19159;48.178;16.386;2023-10-19T08:40:07;16.10;93.10
32809;DHT22;19159;48.178;16.386;2023-10-19T08:42:34;16.20;92.90
32809;DHT22;19159;48.178;16.386;2023-10-19T08:45:00;16.20;92.80
32809;DHT22;19159;48.178;16.386;2023-10-19T08:47:26;16.30;92.80
32809;DHT22;19159;48.178;16.386;2023-10-19T08:49:53;16.40;92.70
32809;DHT22;19159;48.178;16.386;2023-10-19T08:52:21;16.40;92.50
32809;DHT22;19159;48.178;16.386;2023-10-19T08:54:48;16.40;92.40
32809;DHT22;19159;48.178;16.386;2023-10-19T08:57:14;16.30;92.40
32809;DHT22;19159;48.178;16.386;2023-10-19T08:59:39;16.30;92.50
32809;DHT22;19159;48.178;16.386;2023-10-19T09:02:06;16.30;92.50
32809;DHT22;19159;48.178;16.386;2023-10-19T09:04:32;16.20;92.60
32809;DHT22;19159;48.178;16.386;2023-10-19T09:06:58;16.20;92.70
32809;DHT22;19159;48.178;16.386;2023-10-19T09:09:28;16.20;92.70
32809;DHT22;19159;48.178;16.386;2023-10-19T09:11:57;16.20;92.70
32809;DHT22;19159;48.178;16.386;2023-10-19T09:14:34;16.30;92.70
32809;DHT22;19159;48.178;16.386;2023-10-19T09:17:01;16.40;92.80
32809;DHT22;19159;48.178;16.386;2023-10-19T09:19:45;16.30;92.80
32809;DHT22;19159;48.178;16.386;2023-10-19T09:22:14;16.20;92.90
32809;DHT22;19159;48.178;16.386;2023-10-19T09:24:51;16.30;92.90
32809;DHT22;19159;48.178;16.386;2023-10-19T09:27:19;16.30;92.80
32809;DHT22;19159;48.178;16.386;2023-10-19T09:29:46;16.50;92.80
32809;DHT22;19159;48.178;16.386;2023-10-19T09:32:12;16.60;92.60
32809;DHT22;19159;48.178;16.386;2023-10-19T09:34:41;16.60;92.50
32809;DHT22;19159;48.178;16.386;2023-10-19T09:37:09;16.50;92.60
32809;DHT22;19159;48.178;16.386;2023-10-19T09:39:35;16.50;92.70
32809;DHT22;19159;48.178;16.386;2023-10-19T09:42:09;16.50;92.70
32809;DHT22;19159;48.178;16.386;2023-10-19T09:44:55;16.60;92.70
32809;DHT22;19159;48.178;16.386;2023-10-19T09:47:29;16.60;92.80
32809;DHT22;19159;48.178;16.386;2023-10-19T09:49:57;16.60;92.70
32809;DHT22;19159;48.178;16.386;2023-10-19T09:52:23;16.60;92.80
32809;DHT22;19159;48.178;16.386;2023-10-19T09:57:50;16.80;92.80
32809;DHT22;19159;48.178;16.386;2023-10-19T10:00:18;16.70;92.70
32809;DHT22;19159;48.178;16.386;2023-10-19T10:02:49;16.80;92.70
32809;DHT22;19159;48.178;16.386;2023-10-19T10:10:44;17.00;92.40
32809;DHT22;19159;48.178;16.386;2023-10-19T10:15:57;17.00;92.40
32809;DHT22;19159;48.178;16.386;2023-10-19T10:18:27;17.00;92.40
32809;DHT22;19159;48.178;16.386;2023-10-19T10:21:21;17.00;92.50
32809;DHT22;19159;48.178;16.386;2023-10-19T10:26:19;17.40;92.20
32809;DHT22;19159;48.178;16.386;2023-10-19T10:28:50;17.50;92.00
32809;DHT22;19159;48.178;16.386;2023-10-19T10:31:35;17.60;91.90
32809;DHT22;19159;48.178;16.386;2023-10-19T10:34:08;17.60;91.90
32809;DHT22;19159;48.178;16.386;2023-10-19T10:36:57;17.70;91.90
32809;DHT22;19159;48.178;16.386;2023-10-19T10:39:23;17.80;91.60
32809;DHT22;19159;48.178;16.386;2023-10-19T10:41:58;17.90;91.60
32809;DHT22;19159;48.178;16.386;2023-10-19T10:44:49;17.90;91.50
32809;DHT22;19159;48.178;16.386;2023-10-19T10:47:19;18.00;91.50
32809;DHT22;19159;48.178;16.386;2023-10-19T10:49:55;18.10;91.50
32809;DHT22;19159;48.178;16.386;2023-10-19T10:52:32;18.20;91.40
32809;DHT22;19159;48.178;16.386;2023-10-19T10:54:58;18.30;91.30
32809;DHT22;19159;48.178;16.386;2023-10-19T10:57:31;18.50;91.60
32809;DHT22;19159;48.178;16.386;2023-10-19T11:00:02;18.70;91.10
32809;DHT22;19159;48.178;16.386;2023-10-19T11:02:29;18.90;90.80
32809;DHT22;19159;48.178;16.386;2023-10-19T11:04:55;19.30;90.80
32809;DHT22;19159;48.178;16.386;2023-10-19T11:07:20;19.60;90.40
32809;DHT22;19159;48.178;16.386;2023-10-19T11:09:47;19.80;90.10
32809;DHT22;19159;48.178;16.386;2023-10-19T11:12:14;20.10;89.20
32809;DHT22;19159;48.178;16.386;2023-10-19T11:14:57;20.30;89.20
32809;DHT22;19159;48.178;16.386;2023-10-19T11:17:26;20.70;88.80
32809;DHT22;19159;48.178;16.386;2023-10-19T11:19:56;21.00;86.70
32809;DHT22;19159;48.178;16.386;2023-10-19T11:22:25;21.00;85.20
32809;DHT22;19159;48.178;16.386;2023-10-19T11:24:52;21.00;85.40
32809;DHT22;19159;48.178;16.386;2023-10-19T11:27:26;21.00;85.30
32809;DHT22;19159;48.178;16.386;2023-10-19T11:29:59;20.90;84.80
32809;DHT22;19159;48.178;16.386;2023-10-19T11:32:36;20.90;85.10
32809;DHT22;19159;48.178;16.386;2023-10-19T11:35:05;21.00;85.40
32809;DHT22;19159;48.178;16.386;2023-10-19T11:37:51;21.20;85.30
32809;DHT22;19159;48.178;16.386;2023-10-19T11:40:20;21.40;84.50
32809;DHT22;19159;48.178;16.386;2023-10-19T11:42:47;21.50;84.00
32809;DHT22;19159;48.178;16.386;2023-10-19T11:45:12;21.50;83.70
32809;DHT22;19159;48.178;16.386;2023-10-19T11:47:38;21.70;83.00
32809;DHT22;19159;48.178;16.386;2023-10-19T11:50:05;22.10;83.00
32809;DHT22;19159;48.178;16.386;2023-10-19T11:52:31;22.70;81.60
32809;DHT22;19159;48.178;16.386;2023-10-19T11:54:57;22.90;80.70
32809;DHT22;19159;48.178;16.386;2023-10-19T11:57:24;22.90;80.30
32809;DHT22;19159;48.178;16.386;2023-10-19T11:59:50;22.70;80.30
32809;DHT22;19159;48.178;16.386;2023-10-19T12:02:19;22.30;80.30
32809;DHT22;19159;48.178;16.386;2023-10-19T12:04:44;21.90;81.20
32809;DHT22;19159;48.178;16.386;2023-10-19T12:07:11;21.70;82.00
32809;DHT22;19159;48.178;16.386;2023-10-19T12:09:37;21.30;82.40
32809;DHT22;19159;48.178;16.386;2023-10-19T12:12:02;21.20;83.30
32809;DHT22;19159;48.178;16.386;2023-10-19T12:14:31;21.10;83.70
32809;DHT22;19159;48.178;16.386;2023-10-19T12:17:00;21.10;83.90
32809;DHT22;19159;48.178;16.386;2023-10-19T12:19:29;20.80;84.20
32809;DHT22;19159;48.178;16.386;2023-10-19T12:21:55;20.80;84.70
32809;DHT22;19159;48.178;16.386;2023-10-19T12:24:21;20.80;84.90
32809;DHT22;19159;48.178;16.386;2023-10-19T12:26:47;20.80;85.10
32809;DHT22;19159;48.178;16.386;2023-10-19T12:29:13;20.70;85.30
32809;DHT22;19159;48.178;16.386;2023-10-19T12:31:42;20.70;85.40
32809;DHT22;19159;48.178;16.386;2023-10-19T12:34:07;20.70;85.60
32809;DHT22;19159;48.178;16.386;2023-10-19T12:36:34;20.70;85.70
32809;DHT22;19159;48.178;16.386;2023-10-19T12:39:00;20.70;85.90
32809;DHT22;19159;48.178;16.386;2023-10-19T12:41:27;20.70;86.00
32809;DHT22;19159;48.178;16.386;2023-10-19T12:43:53;20.70;86.30
32809;DHT22;19159;48.178;16.386;2023-10-19T12:46:26;20.60;86.40
32809;DHT22;19159;48.178;16.386;2023-10-19T12:48:55;20.60;86.50
32809;DHT22;19159;48.178;16.386;2023-10-19T12:51:22;20.60;86.70
32809;DHT22;19159;48.178;16.386;2023-10-19T12:53:51;20.60;86.90
32809;DHT22;19159;48.178;16.386;2023-10-19T12:56:21;20.50;87.00
32809;DHT22;19159;48.178;16.386;2023-10-19T12:58:49;20.50;87.00
32809;DHT22;19159;48.178;16.386;2023-10-19T13:01:15;20.50;87.40
32809;DHT22;19159;48.178;16.386;2023-10-19T13:03:48;20.50;87.40
32809;DHT22;19159;48.178;16.386;2023-10-19T13:06:15;20.60;88.10
32809;DHT22;19159;48.178;16.386;2023-10-19T13:08:41;20.60;87.40
32809;DHT22;19159;48.178;16.386;2023-10-19T13:11:07;20.70;87.40
32809;DHT22;19159;48.178;16.386;2023-10-19T13:13:33;20.70;87.10
32809;DHT22;19159;48.178;16.386;2023-10-19T13:16:02;20.80;86.90
32809;DHT22;19159;48.178;16.386;2023-10-19T13:18:33;20.80;86.70
32809;DHT22;19159;48.178;16.386;2023-10-19T13:21:00;20.80;86.90
32809;DHT22;19159;48.178;16.386;2023-10-19T13:23:33;20.80;86.60
32809;DHT22;19159;48.178;16.386;2023-10-19T13:25:59;20.70;86.60
32809;DHT22;19159;48.178;16.386;2023-10-19T13:28:34;20.60;86.60
32809;DHT22;19159;48.178;16.386;2023-10-19T13:31:03;20.50;87.20
32809;DHT22;19159;48.178;16.386;2023-10-19T13:33:29;20.60;87.20
32809;DHT22;19159;48.178;16.386;2023-10-19T13:35:55;20.70;87.00
32809;DHT22;19159;48.178;16.386;2023-10-19T13:38:20;20.70;86.90
32809;DHT22;19159;48.178;16.386;2023-10-19T13:40:46;20.70;87.00
32809;DHT22;19159;48.178;16.386;2023-10-19T13:43:13;20.60;86.90
32809;DHT22;19159;48.178;16.386;2023-10-19T13:45:44;20.50;87.00
32809;DHT22;19159;48.178;16.386;2023-10-19T13:48:11;20.50;87.20
32809;DHT22;19159;48.178;16.386;2023-10-19T13:50:45;20.50;87.40
32809;DHT22;19159;48.178;16.386;2023-10-19T13:53:13;20.20;87.80
32809;DHT22;19159;48.178;16.386;2023-10-19T13:55:39;20.30;88.10
32809;DHT22;19159;48.178;16.386;2023-10-19T13:58:05;20.40;88.20
